Terminal Aerodrome Forecast
Issued by NWS

Home | Current Version | Previous Version | Text Only | Print | Product List | Glossary On
Versions: 1 2 3 4 5 6 7 8 9 10 11 12 13 14 15 16 17
000
FTUS42 KMLB 060544
TAFSFB
TAF
KSFB 060544Z 0606/0706 28006KT P6SM FEW015 SCT030
     FM060900 33009KT P6SM BKN007 OVC015
     FM061300 01010KT P6SM BKN007 OVC015
      TEMPO 0616/0620 SCT007 OVC015
     FM062200 01017G24KT P6SM OVC007=

USA.gov is the U.S. government's official web portal to all federal, state and local government web resources and services.